Atlanta, Kansas
Current Conditions -  °F | °C
As of 9:55 AM on Sunday 23 Nov 2014 (Local Time) from KEQA Reporting Station
Overcast Overcast  
Wind Chill: 57°   Ceiling: 2400
Heat Index: 57°   Visibility: 10mi
Dew Point: 54°   Wind: 6mph
Humidity: 88%   Direction: 190°S
Pressure: 29.43"   Gusts: NA
Location:  37.44°N, 96.76°W
Report Text: KEQA 231555Z AUTO 19005KT 10SM SCT012 OVC024 14/12 A2943 RMK AO2
Loading
Personal Weather Stations






























Interactive Weather Map New forecast layout! Learn more

10-Day Weather Forecast

Advertisements
Track Severe Weather on mobile